createdAt,value
2018-12-23T00:03:16.659Z,93.60
2018-12-23T00:08:21.521Z,93.40
2018-12-23T00:13:26.333Z,93.20
2018-12-23T00:18:31.189Z,93.10
2018-12-23T00:23:36.066Z,93.00
2018-12-23T00:28:40.958Z,92.90
2018-12-23T00:33:45.821Z,93.10
2018-12-23T00:38:50.576Z,93.20
2018-12-23T00:43:55.519Z,93.20
2018-12-23T00:49:00.368Z,92.70
2018-12-23T00:54:05.414Z,92.60
2018-12-23T00:59:10.364Z,92.10
2018-12-23T01:04:15.350Z,92.20
2018-12-23T01:09:20.461Z,92.10
2018-12-23T01:14:25.229Z,91.60
2018-12-23T01:19:30.156Z,91.70
2018-12-23T01:24:34.992Z,92.10
2018-12-23T01:29:39.964Z,92.30
2018-12-23T01:34:44.777Z,92.10
2018-12-23T01:39:49.751Z,91.70
2018-12-23T01:44:54.759Z,91.80
2018-12-23T01:49:59.657Z,92.00
2018-12-23T01:55:04.923Z,91.60
2018-12-23T02:00:10.324Z,91.60
2018-12-23T02:05:15.315Z,91.30
2018-12-23T02:10:20.361Z,91.20
2018-12-23T02:15:25.331Z,91.50
2018-12-23T02:20:30.275Z,91.80
2018-12-23T02:25:35.111Z,91.80
2018-12-23T02:30:40.125Z,91.80
2018-12-23T02:35:45.009Z,91.90
2018-12-23T02:40:49.851Z,91.80
2018-12-23T02:45:54.782Z,91.40
2018-12-23T02:50:59.750Z,91.60
2018-12-23T02:56:04.791Z,91.70
2018-12-23T03:01:09.651Z,92.10
2018-12-23T03:06:14.548Z,91.80
2018-12-23T03:11:19.555Z,92.20
2018-12-23T03:16:24.476Z,92.10
2018-12-23T03:21:29.409Z,92.20
2018-12-23T03:26:34.297Z,92.00
2018-12-23T03:31:39.360Z,92.20
2018-12-23T03:36:45.315Z,92.20
2018-12-23T03:41:50.143Z,92.30
2018-12-23T03:46:55.176Z,92.40
2018-12-23T03:51:59.926Z,92.50
2018-12-23T03:57:04.991Z,92.70
2018-12-23T04:02:09.843Z,92.80
2018-12-23T04:07:14.871Z,92.70
2018-12-23T04:12:19.703Z,92.70
2018-12-23T04:17:24.467Z,93.00
2018-12-23T04:22:29.494Z,93.40
2018-12-23T04:27:34.283Z,93.30
2018-12-23T04:32:39.307Z,93.90
2018-12-23T04:37:44.287Z,94.10
2018-12-23T04:42:49.298Z,94.10
2018-12-23T04:47:54.184Z,94.00
2018-12-23T04:52:58.794Z,94.20
2018-12-23T04:58:03.735Z,94.40
2018-12-23T05:03:08.588Z,94.40
2018-12-23T05:08:13.622Z,94.40
2018-12-23T05:13:18.457Z,94.60
2018-12-23T05:18:23.333Z,94.60
2018-12-23T05:23:28.287Z,94.40
2018-12-23T05:28:33.323Z,94.40
2018-12-23T05:33:38.187Z,94.10
2018-12-23T05:38:43.206Z,94.10
2018-12-23T05:43:48.071Z,94.20
2018-12-23T05:48:53.008Z,94.40
2018-12-23T05:53:57.847Z,94.20
2018-12-23T05:59:02.906Z,94.00
2018-12-23T06:04:07.855Z,93.70
2018-12-23T06:09:12.909Z,93.70
2018-12-23T06:14:17.840Z,93.80
2018-12-23T06:19:22.691Z,94.30
2018-12-23T06:24:27.462Z,94.10
2018-12-23T06:29:32.495Z,94.00
2018-12-23T06:34:37.466Z,94.40
2018-12-23T06:39:42.485Z,94.10
2018-12-23T06:44:47.217Z,94.00
2018-12-23T06:49:53.961Z,94.20
2018-12-23T06:54:58.869Z,94.20
2018-12-23T07:00:04.107Z,94.60
2018-12-23T07:05:08.950Z,94.60
2018-12-23T07:10:13.812Z,94.90
2018-12-23T07:15:18.860Z,94.60
2018-12-23T07:20:23.809Z,94.60
2018-12-23T07:25:28.652Z,94.60
2018-12-23T07:30:33.575Z,95.00
2018-12-23T07:35:38.455Z,94.60
2018-12-23T07:40:43.309Z,94.20
2018-12-23T07:45:48.235Z,93.60
2018-12-23T07:50:53.856Z,94.40
2018-12-23T07:55:59.443Z,93.50
2018-12-23T08:01:04.528Z,93.80
2018-12-23T08:06:09.576Z,93.30
2018-12-23T08:11:14.434Z,93.30
2018-12-23T08:16:19.248Z,93.10
2018-12-23T08:21:24.119Z,92.70
2018-12-23T08:26:29.155Z,93.00
2018-12-23T08:31:34.005Z,91.80
2018-12-23T08:36:38.847Z,91.50
2018-12-23T08:41:43.819Z,92.00
2018-12-23T08:46:48.837Z,91.70
2018-12-23T08:51:53.667Z,92.20
2018-12-23T08:56:58.710Z,93.10
2018-12-23T09:02:03.711Z,93.10
2018-12-23T09:07:08.922Z,91.80
2018-12-23T09:12:13.772Z,91.10
2018-12-23T09:17:18.610Z,90.50
2018-12-23T09:22:23.373Z,90.30
2018-12-23T09:27:30.149Z,90.30
2018-12-23T09:32:34.987Z,88.70
2018-12-23T09:37:40.121Z,88.40
2018-12-23T09:42:46.880Z,87.30
2018-12-23T09:47:51.706Z,86.80
2018-12-23T09:52:57.510Z,87.50
2018-12-23T09:58:02.560Z,86.90
2018-12-23T10:03:07.619Z,87.60
2018-12-23T10:08:12.423Z,86.70
2018-12-23T10:13:17.228Z,87.90
2018-12-23T10:18:22.112Z,87.70
2018-12-23T10:23:27.149Z,85.80
2018-12-23T10:28:31.895Z,86.30
2018-12-23T10:33:36.847Z,87.10
2018-12-23T10:38:42.829Z,85.00
2018-12-23T10:43:48.797Z,85.70
2018-12-23T10:48:56.239Z,85.20
2018-12-23T10:54:01.136Z,85.20
2018-12-23T10:59:05.996Z,85.00
2018-12-23T11:04:10.857Z,83.10
2018-12-23T11:09:16.089Z,84.70
2018-12-23T11:14:20.936Z,84.40
2018-12-23T11:19:26.281Z,84.20
2018-12-23T11:24:31.536Z,84.90
2018-12-23T11:29:36.550Z,84.40
2018-12-23T11:34:41.346Z,83.90
2018-12-23T11:39:46.305Z,82.80
2018-12-23T11:44:51.347Z,84.40
2018-12-23T11:49:56.191Z,84.20
2018-12-23T11:55:01.152Z,84.20
2018-12-23T12:00:06.433Z,83.40
2018-12-23T12:05:11.316Z,84.20
2018-12-23T12:10:16.312Z,84.10
2018-12-23T12:15:21.147Z,83.30
2018-12-23T12:20:26.092Z,82.60
2018-12-23T12:25:30.943Z,83.30
2018-12-23T12:30:35.883Z,84.10
2018-12-23T12:35:40.973Z,82.30
2018-12-23T12:40:46.122Z,82.70
2018-12-23T12:45:51.047Z,81.80
2018-12-23T12:50:56.595Z,83.00
2018-12-23T12:56:02.702Z,81.60
2018-12-23T13:01:07.812Z,82.30
2018-12-23T13:06:12.976Z,82.10
2018-12-23T13:11:18.009Z,80.60
2018-12-23T13:16:22.944Z,81.20
2018-12-23T13:21:28.260Z,81.40
2018-12-23T13:26:33.200Z,83.30
2018-12-23T13:31:38.042Z,83.10
2018-12-23T13:36:43.633Z,84.20
2018-12-23T13:41:59.671Z,85.00
2018-12-23T13:47:16.432Z,84.60
2018-12-23T13:53:03.651Z,84.40
2018-12-23T13:58:19.935Z,85.00
2018-12-23T14:04:31.035Z,85.80
2018-12-23T14:10:00.223Z,86.10
2018-12-23T14:15:05.407Z,85.20
2018-12-23T14:20:10.540Z,87.20
2018-12-23T14:25:16.655Z,88.50
2018-12-23T14:30:21.817Z,89.80
2018-12-23T14:35:26.639Z,90.30
2018-12-23T14:40:31.821Z,90.50
2018-12-23T14:45:36.875Z,90.60
2018-12-23T14:50:41.720Z,90.80
2018-12-23T14:55:47.545Z,91.70
2018-12-23T15:00:53.271Z,92.20
2018-12-23T15:05:58.373Z,92.00
2018-12-23T15:11:04.332Z,91.90
2018-12-23T15:16:09.339Z,91.30
2018-12-23T15:21:15.324Z,90.70
2018-12-23T15:26:20.449Z,90.80
2018-12-23T15:31:25.649Z,91.90
2018-12-23T15:36:30.620Z,92.00
2018-12-23T15:41:36.019Z,92.70
2018-12-23T15:46:41.505Z,92.70
2018-12-23T15:51:47.147Z,93.60
2018-12-23T15:56:52.170Z,92.80
2018-12-23T16:01:57.148Z,93.00
2018-12-23T16:07:02.423Z,93.60
2018-12-23T16:12:09.253Z,94.20
2018-12-23T16:17:14.400Z,94.50
2018-12-23T16:22:19.535Z,94.30
2018-12-23T16:27:24.499Z,94.70
2018-12-23T16:32:29.653Z,94.40
2018-12-23T16:37:35.790Z,94.80
2018-12-23T16:42:40.798Z,95.10
2018-12-23T16:47:45.752Z,95.20
2018-12-23T16:52:50.805Z,95.00
2018-12-23T16:57:55.934Z,95.10
2018-12-23T17:03:00.889Z,95.30
2018-12-23T17:08:06.892Z,95.20
2018-12-23T17:13:11.897Z,94.90
2018-12-23T17:18:17.359Z,95.20
2018-12-23T17:23:22.296Z,95.20
2018-12-23T17:28:28.238Z,95.50
2018-12-23T17:33:33.445Z,95.20
2018-12-23T17:38:39.351Z,95.60
2018-12-23T17:43:44.479Z,95.40
2018-12-23T17:48:49.344Z,96.20
2018-12-23T17:53:54.172Z,95.70
2018-12-23T17:58:59.151Z,95.80
2018-12-23T18:04:04.378Z,95.60
2018-12-23T18:09:09.339Z,95.30
2018-12-23T18:14:14.187Z,96.50
2018-12-23T18:19:19.043Z,96.60
2018-12-23T18:24:24.076Z,97.80
2018-12-23T18:29:29.002Z,98.10
2018-12-23T18:34:33.949Z,98.30
2018-12-23T18:39:39.002Z,98.50
2018-12-23T18:44:44.020Z,99.90
2018-12-23T18:49:49.093Z,99.90
2018-12-23T18:54:54.239Z,99.90
2018-12-23T18:59:59.235Z,99.90
2018-12-23T19:05:04.356Z,99.90
2018-12-23T19:10:23.143Z,99.90
2018-12-23T19:15:42.800Z,99.30
2018-12-23T19:20:59.319Z,99.90
2018-12-23T19:27:18.751Z,99.80
2018-12-23T19:32:36.654Z,99.00
2018-12-23T19:38:57.992Z,99.90
2018-12-23T19:46:13.412Z,99.90
2018-12-23T19:54:35.366Z,99.90
2018-12-23T19:59:54.344Z,99.40
2018-12-23T20:05:09.940Z,99.90
2018-12-23T20:10:29.846Z,98.80
2018-12-23T20:15:45.538Z,99.90
2018-12-23T20:21:09.529Z,99.90
2018-12-23T20:26:37.763Z,99.90
2018-12-23T20:34:04.188Z,99.90
2018-12-23T20:39:29.718Z,99.90
2018-12-23T20:44:47.786Z,99.90
2018-12-23T20:52:14.649Z,99.90
2018-12-23T20:57:59.735Z,99.90
2018-12-23T21:03:17.535Z,99.20
2018-12-23T21:09:35.701Z,99.90
2018-12-23T21:14:53.404Z,99.90
2018-12-23T21:22:17.711Z,99.20
2018-12-23T21:27:34.535Z,99.80
2018-12-23T21:34:48.098Z,99.90
2018-12-23T21:41:03.086Z,99.90
2018-12-23T21:46:18.562Z,99.90
2018-12-23T21:53:39.739Z,99.90
2018-12-23T21:58:59.455Z,99.90
2018-12-23T22:05:52.800Z,99.90
2018-12-23T22:11:23.706Z,99.90
2018-12-23T22:16:29.840Z,99.90
2018-12-23T22:21:35.973Z,99.90
2018-12-23T22:26:41.949Z,99.90
2018-12-23T22:31:48.148Z,99.90
2018-12-23T22:36:54.281Z,99.80
2018-12-23T22:42:00.297Z,99.80
2018-12-23T22:47:06.357Z,99.90
2018-12-23T22:52:12.536Z,99.90
2018-12-23T22:57:18.674Z,99.90
2018-12-23T23:02:24.767Z,97.90
2018-12-23T23:07:30.861Z,98.60
2018-12-23T23:12:37.025Z,98.80
2018-12-23T23:17:43.032Z,97.20
2018-12-23T23:22:49.045Z,98.20
2018-12-23T23:27:55.292Z,97.50
2018-12-23T23:33:01.403Z,98.10
2018-12-23T23:38:07.616Z,97.80
2018-12-23T23:43:13.558Z,97.40
2018-12-23T23:48:19.630Z,96.80
2018-12-23T23:53:25.894Z,97.10
2018-12-23T23:58:32.034Z,97.70
